sensor_id;sensor_type;location;lat;lon;timestamp;temperature;humidity
26051;DHT22;13825;53.496;10.020;2022-10-30T00:00:56;12.30;99.90
26051;DHT22;13825;53.496;10.020;2022-10-30T00:03:23;12.30;99.90
26051;DHT22;13825;53.496;10.020;2022-10-30T00:05:51;12.20;99.90
26051;DHT22;13825;53.496;10.020;2022-10-30T00:08:20;12.20;99.90
26051;DHT22;13825;53.496;10.020;2022-10-30T00:10:47;12.10;99.90
26051;DHT22;13825;53.496;10.020;2022-10-30T00:13:15;12.20;99.90
26051;DHT22;13825;53.496;10.020;2022-10-30T00:15:46;12.10;99.90
26051;DHT22;13825;53.496;10.020;2022-10-30T00:18:14;12.10;99.90
26051;DHT22;13825;53.496;10.020;2022-10-30T00:20:40;12.10;99.90
26051;DHT22;13825;53.496;10.020;2022-10-30T00:23:09;12.10;99.90
26051;DHT22;13825;53.496;10.020;2022-10-30T00:25:35;12.10;99.90
26051;DHT22;13825;53.496;10.020;2022-10-30T00:28:03;12.00;99.90
26051;DHT22;13825;53.496;10.020;2022-10-30T00:30:30;12.00;99.90
26051;DHT22;13825;53.496;10.020;2022-10-30T00:32:57;12.00;99.90
26051;DHT22;13825;53.496;10.020;2022-10-30T00:35:24;12.00;99.90
26051;DHT22;13825;53.496;10.020;2022-10-30T00:37:51;11.90;99.90
26051;DHT22;13825;53.496;10.020;2022-10-30T00:40:19;12.00;99.90
26051;DHT22;13825;53.496;10.020;2022-10-30T00:42:46;11.90;99.90
26051;DHT22;13825;53.496;10.020;2022-10-30T00:45:15;11.90;99.90
26051;DHT22;13825;53.496;10.020;2022-10-30T00:47:44;11.90;99.90
26051;DHT22;13825;53.496;10.020;2022-10-30T00:50:14;11.90;99.90
26051;DHT22;13825;53.496;10.020;2022-10-30T00:52:47;11.80;99.90
26051;DHT22;13825;53.496;10.020;2022-10-30T00:55:19;11.80;99.90
26051;DHT22;13825;53.496;10.020;2022-10-30T00:57:48;11.80;99.90
26051;DHT22;13825;53.496;10.020;2022-10-30T01:00:19;11.80;99.90
26051;DHT22;13825;53.496;10.020;2022-10-30T01:02:46;11.70;99.90
26051;DHT22;13825;53.496;10.020;2022-10-30T01:05:19;11.70;99.90
26051;DHT22;13825;53.496;10.020;2022-10-30T01:07:46;11.60;99.90
26051;DHT22;13825;53.496;10.020;2022-10-30T01:10:13;11.60;99.90
26051;DHT22;13825;53.496;10.020;2022-10-30T01:12:42;11.60;99.90
26051;DHT22;13825;53.496;10.020;2022-10-30T01:15:11;11.60;99.90
26051;DHT22;13825;53.496;10.020;2022-10-30T01:17:55;11.60;99.90
26051;DHT22;13825;53.496;10.020;2022-10-30T01:20:37;11.50;99.90
26051;DHT22;13825;53.496;10.020;2022-10-30T01:23:16;11.50;99.90
26051;DHT22;13825;53.496;10.020;2022-10-30T01:25:51;11.50;99.90
26051;DHT22;13825;53.496;10.020;2022-10-30T01:28:33;11.40;99.90
26051;DHT22;13825;53.496;10.020;2022-10-30T01:31:15;11.40;99.90
26051;DHT22;13825;53.496;10.020;2022-10-30T01:33:55;11.50;99.90
26051;DHT22;13825;53.496;10.020;2022-10-30T01:36:32;11.50;99.90
26051;DHT22;13825;53.496;10.020;2022-10-30T01:39:03;11.50;99.90
26051;DHT22;13825;53.496;10.020;2022-10-30T01:41:30;11.50;99.90
26051;DHT22;13825;53.496;10.020;2022-10-30T01:44:01;11.60;99.90
26051;DHT22;13825;53.496;10.020;2022-10-30T01:46:38;11.70;99.90
26051;DHT22;13825;53.496;10.020;2022-10-30T01:49:17;11.70;99.90
26051;DHT22;13825;53.496;10.020;2022-10-30T01:51:56;11.70;99.90
26051;DHT22;13825;53.496;10.020;2022-10-30T01:54:37;11.70;99.90
26051;DHT22;13825;53.496;10.020;2022-10-30T01:57:11;11.80;99.90
26051;DHT22;13825;53.496;10.020;2022-10-30T01:59:44;11.70;99.90
26051;DHT22;13825;53.496;10.020;2022-10-30T02:02:13;11.80;99.90
26051;DHT22;13825;53.496;10.020;2022-10-30T02:04:40;11.70;99.90
26051;DHT22;13825;53.496;10.020;2022-10-30T02:07:07;11.70;99.90
26051;DHT22;13825;53.496;10.020;2022-10-30T02:09:36;11.70;99.90
26051;DHT22;13825;53.496;10.020;2022-10-30T02:12:03;11.70;99.90
26051;DHT22;13825;53.496;10.020;2022-10-30T02:14:33;11.60;99.90
26051;DHT22;13825;53.496;10.020;2022-10-30T02:17:05;11.70;99.90
26051;DHT22;13825;53.496;10.020;2022-10-30T02:19:33;11.60;99.90
26051;DHT22;13825;53.496;10.020;2022-10-30T02:22:01;11.50;99.90
26051;DHT22;13825;53.496;10.020;2022-10-30T02:24:29;11.50;99.90
26051;DHT22;13825;53.496;10.020;2022-10-30T02:26:56;11.40;99.90
26051;DHT22;13825;53.496;10.020;2022-10-30T02:29:25;11.40;99.90
26051;DHT22;13825;53.496;10.020;2022-10-30T02:31:52;11.40;99.90
26051;DHT22;13825;53.496;10.020;2022-10-30T02:34:18;11.40;99.90
26051;DHT22;13825;53.496;10.020;2022-10-30T02:36:47;11.30;99.90
26051;DHT22;13825;53.496;10.020;2022-10-30T02:39:18;11.30;99.90
26051;DHT22;13825;53.496;10.020;2022-10-30T02:41:45;11.20;99.90
26051;DHT22;13825;53.496;10.020;2022-10-30T02:44:14;11.10;99.90
26051;DHT22;13825;53.496;10.020;2022-10-30T02:46:41;11.10;99.90
26051;DHT22;13825;53.496;10.020;2022-10-30T02:49:08;11.10;99.90
26051;DHT22;13825;53.496;10.020;2022-10-30T02:51:35;11.10;99.90
26051;DHT22;13825;53.496;10.020;2022-10-30T02:54:02;11.10;99.90
26051;DHT22;13825;53.496;10.020;2022-10-30T02:56:30;11.00;99.90
26051;DHT22;13825;53.496;10.020;2022-10-30T02:58:57;11.00;99.90
26051;DHT22;13825;53.496;10.020;2022-10-30T03:01:24;11.00;99.90
26051;DHT22;13825;53.496;10.020;2022-10-30T03:03:51;11.00;99.90
26051;DHT22;13825;53.496;10.020;2022-10-30T03:06:18;10.90;99.90
26051;DHT22;13825;53.496;10.020;2022-10-30T03:08:44;10.90;99.90
26051;DHT22;13825;53.496;10.020;2022-10-30T03:11:12;10.90;99.90
26051;DHT22;13825;53.496;10.020;2022-10-30T03:13:42;10.90;99.90
26051;DHT22;13825;53.496;10.020;2022-10-30T03:16:10;10.80;99.90
26051;DHT22;13825;53.496;10.020;2022-10-30T03:18:37;10.80;99.90
26051;DHT22;13825;53.496;10.020;2022-10-30T03:21:06;10.70;99.90
26051;DHT22;13825;53.496;10.020;2022-10-30T03:23:34;10.80;99.90
26051;DHT22;13825;53.496;10.020;2022-10-30T03:26:01;10.80;99.90
26051;DHT22;13825;53.496;10.020;2022-10-30T03:28:30;10.80;99.90
26051;DHT22;13825;53.496;10.020;2022-10-30T03:30:59;10.80;99.90
26051;DHT22;13825;53.496;10.020;2022-10-30T03:33:27;10.80;99.90
26051;DHT22;13825;53.496;10.020;2022-10-30T03:35:54;10.80;99.90
26051;DHT22;13825;53.496;10.020;2022-10-30T03:38:21;10.80;99.90
26051;DHT22;13825;53.496;10.020;2022-10-30T03:40:48;10.80;99.90
26051;DHT22;13825;53.496;10.020;2022-10-30T03:43:14;10.80;99.90
26051;DHT22;13825;53.496;10.020;2022-10-30T03:45:45;10.80;99.90
26051;DHT22;13825;53.496;10.020;2022-10-30T03:48:14;10.80;99.90
26051;DHT22;13825;53.496;10.020;2022-10-30T03:50:41;10.80;99.90
26051;DHT22;13825;53.496;10.020;2022-10-30T03:53:11;10.80;99.90
26051;DHT22;13825;53.496;10.020;2022-10-30T03:55:39;10.70;99.90
26051;DHT22;13825;53.496;10.020;2022-10-30T03:58:06;10.60;99.90
26051;DHT22;13825;53.496;10.020;2022-10-30T04:00:33;10.60;99.90
26051;DHT22;13825;53.496;10.020;2022-10-30T04:03:00;10.60;99.90
26051;DHT22;13825;53.496;10.020;2022-10-30T04:05:30;10.60;99.90
26051;DHT22;13825;53.496;10.020;2022-10-30T04:08:00;10.50;99.90
26051;DHT22;13825;53.496;10.020;2022-10-30T04:10:27;10.50;99.90
26051;DHT22;13825;53.496;10.020;2022-10-30T04:12:59;10.50;99.90
26051;DHT22;13825;53.496;10.020;2022-10-30T04:15:26;10.50;99.90
26051;DHT22;13825;53.496;10.020;2022-10-30T04:17:53;10.50;99.90
26051;DHT22;13825;53.496;10.020;2022-10-30T04:20:21;10.50;99.90
26051;DHT22;13825;53.496;10.020;2022-10-30T04:22:54;10.50;99.90
26051;DHT22;13825;53.496;10.020;2022-10-30T04:25:24;10.50;99.90
26051;DHT22;13825;53.496;10.020;2022-10-30T04:27:54;10.50;99.90
26051;DHT22;13825;53.496;10.020;2022-10-30T04:30:23;10.50;99.90
26051;DHT22;13825;53.496;10.020;2022-10-30T04:32:53;10.50;99.90
26051;DHT22;13825;53.496;10.020;2022-10-30T04:35:22;10.60;99.90
26051;DHT22;13825;53.496;10.020;2022-10-30T04:37:54;10.50;99.90
26051;DHT22;13825;53.496;10.020;2022-10-30T04:40:24;10.50;99.90
26051;DHT22;13825;53.496;10.020;2022-10-30T04:42:51;10.50;99.90
26051;DHT22;13825;53.496;10.020;2022-10-30T04:45:19;10.50;99.90
26051;DHT22;13825;53.496;10.020;2022-10-30T04:47:46;10.40;99.90
26051;DHT22;13825;53.496;10.020;2022-10-30T04:50:14;10.40;99.90
26051;DHT22;13825;53.496;10.020;2022-10-30T04:52:41;10.40;99.90
26051;DHT22;13825;53.496;10.020;2022-10-30T04:55:10;10.40;99.90
26051;DHT22;13825;53.496;10.020;2022-10-30T04:57:37;10.40;99.90
26051;DHT22;13825;53.496;10.020;2022-10-30T05:00:09;10.40;99.90
26051;DHT22;13825;53.496;10.020;2022-10-30T05:02:37;10.40;99.90
26051;DHT22;13825;53.496;10.020;2022-10-30T05:05:05;10.40;99.90
26051;DHT22;13825;53.496;10.020;2022-10-30T05:07:32;10.30;99.90
26051;DHT22;13825;53.496;10.020;2022-10-30T05:09:59;10.40;99.90
26051;DHT22;13825;53.496;10.020;2022-10-30T05:12:27;10.30;99.90
26051;DHT22;13825;53.496;10.020;2022-10-30T05:14:54;10.30;99.90
26051;DHT22;13825;53.496;10.020;2022-10-30T05:17:24;10.30;99.90
26051;DHT22;13825;53.496;10.020;2022-10-30T05:19:51;10.30;99.90
26051;DHT22;13825;53.496;10.020;2022-10-30T05:22:18;10.30;99.90
26051;DHT22;13825;53.496;10.020;2022-10-30T05:24:45;10.30;99.90
26051;DHT22;13825;53.496;10.020;2022-10-30T05:27:12;10.20;99.90
26051;DHT22;13825;53.496;10.020;2022-10-30T05:29:41;10.20;99.90
26051;DHT22;13825;53.496;10.020;2022-10-30T05:32:08;10.20;99.90
26051;DHT22;13825;53.496;10.020;2022-10-30T05:34:35;10.20;99.90
26051;DHT22;13825;53.496;10.020;2022-10-30T05:37:02;10.20;99.90
26051;DHT22;13825;53.496;10.020;2022-10-30T05:39:29;10.10;99.90
26051;DHT22;13825;53.496;10.020;2022-10-30T05:41:58;10.10;99.90
26051;DHT22;13825;53.496;10.020;2022-10-30T05:44:28;10.10;99.90
26051;DHT22;13825;53.496;10.020;2022-10-30T05:46:56;10.10;99.90
26051;DHT22;13825;53.496;10.020;2022-10-30T05:49:23;10.10;99.90
26051;DHT22;13825;53.496;10.020;2022-10-30T05:51:50;10.00;99.90
26051;DHT22;13825;53.496;10.020;2022-10-30T05:54:17;10.00;99.90
26051;DHT22;13825;53.496;10.020;2022-10-30T05:56:44;10.00;99.90
26051;DHT22;13825;53.496;10.020;2022-10-30T05:59:11;10.00;99.90
26051;DHT22;13825;53.496;10.020;2022-10-30T06:01:38;9.80;99.90
26051;DHT22;13825;53.496;10.020;2022-10-30T06:04:07;9.90;99.90
26051;DHT22;13825;53.496;10.020;2022-10-30T06:06:34;9.90;99.90
26051;DHT22;13825;53.496;10.020;2022-10-30T06:09:01;9.90;99.90
26051;DHT22;13825;53.496;10.020;2022-10-30T06:11:28;9.80;99.90
26051;DHT22;13825;53.496;10.020;2022-10-30T06:13:54;9.80;99.90
26051;DHT22;13825;53.496;10.020;2022-10-30T06:16:23;9.70;99.90
26051;DHT22;13825;53.496;10.020;2022-10-30T06:18:50;9.80;99.90
26051;DHT22;13825;53.496;10.020;2022-10-30T06:21:21;9.70;99.90
26051;DHT22;13825;53.496;10.020;2022-10-30T06:23:48;9.70;99.90
26051;DHT22;13825;53.496;10.020;2022-10-30T06:26:15;9.70;99.90
26051;DHT22;13825;53.496;10.020;2022-10-30T06:28:42;9.70;99.90
26051;DHT22;13825;53.496;10.020;2022-10-30T06:31:09;9.60;99.90
26051;DHT22;13825;53.496;10.020;2022-10-30T06:33:36;9.70;99.90
26051;DHT22;13825;53.496;10.020;2022-10-30T06:36:03;9.70;99.90
26051;DHT22;13825;53.496;10.020;2022-10-30T06:38:32;9.70;99.90
26051;DHT22;13825;53.496;10.020;2022-10-30T06:41:10;9.70;99.90
26051;DHT22;13825;53.496;10.020;2022-10-30T06:43:48;9.70;99.90
26051;DHT22;13825;53.496;10.020;2022-10-30T06:46:16;9.80;99.90
26051;DHT22;13825;53.496;10.020;2022-10-30T06:48:47;9.80;99.90
26051;DHT22;13825;53.496;10.020;2022-10-30T06:51:15;9.80;99.90
26051;DHT22;13825;53.496;10.020;2022-10-30T06:54:10;9.90;99.90
26051;DHT22;13825;53.496;10.020;2022-10-30T06:56:37;10.00;99.90
26051;DHT22;13825;53.496;10.020;2022-10-30T07:01:58;10.10;99.90
26051;DHT22;13825;53.496;10.020;2022-10-30T07:04:28;10.10;99.90
26051;DHT22;13825;53.496;10.020;2022-10-30T07:07:08;10.20;99.90
26051;DHT22;13825;53.496;10.020;2022-10-30T07:09:39;10.20;99.90
26051;DHT22;13825;53.496;10.020;2022-10-30T07:12:14;10.30;99.90
26051;DHT22;13825;53.496;10.020;2022-10-30T07:14:58;10.40;99.90
26051;DHT22;13825;53.496;10.020;2022-10-30T07:17:35;10.40;99.90
26051;DHT22;13825;53.496;10.020;2022-10-30T07:20:13;10.50;99.90
26051;DHT22;13825;53.496;10.020;2022-10-30T07:24:14;10.60;99.90
26051;DHT22;13825;53.496;10.020;2022-10-30T07:26:49;10.70;99.90
26051;DHT22;13825;53.496;10.020;2022-10-30T07:29:46;10.70;99.90
26051;DHT22;13825;53.496;10.020;2022-10-30T07:32:56;10.80;99.90
26051;DHT22;13825;53.496;10.020;2022-10-30T07:35:43;10.90;99.90
26051;DHT22;13825;53.496;10.020;2022-10-30T07:38:20;11.00;99.90
26051;DHT22;13825;53.496;10.020;2022-10-30T07:41:15;11.10;99.90
26051;DHT22;13825;53.496;10.020;2022-10-30T07:43:56;11.20;99.90
26051;DHT22;13825;53.496;10.020;2022-10-30T07:46:26;11.30;99.90
26051;DHT22;13825;53.496;10.020;2022-10-30T07:48:56;11.40;99.90
26051;DHT22;13825;53.496;10.020;2022-10-30T07:51:23;11.50;99.90
26051;DHT22;13825;53.496;10.020;2022-10-30T07:53:50;11.70;99.90
26051;DHT22;13825;53.496;10.020;2022-10-30T07:56:22;11.80;99.90
26051;DHT22;13825;53.496;10.020;2022-10-30T07:58:55;12.00;99.90
26051;DHT22;13825;53.496;10.020;2022-10-30T08:01:33;12.20;99.90
26051;DHT22;13825;53.496;10.020;2022-10-30T08:04:07;12.20;99.90
26051;DHT22;13825;53.496;10.020;2022-10-30T08:06:39;12.40;99.90
26051;DHT22;13825;53.496;10.020;2022-10-30T08:09:16;12.60;99.90
26051;DHT22;13825;53.496;10.020;2022-10-30T08:11:43;12.70;99.90
26051;DHT22;13825;53.496;10.020;2022-10-30T08:14:17;12.70;99.90
26051;DHT22;13825;53.496;10.020;2022-10-30T08:16:56;12.90;99.90
26051;DHT22;13825;53.496;10.020;2022-10-30T08:19:32;13.10;99.90
26051;DHT22;13825;53.496;10.020;2022-10-30T08:21:59;13.20;99.90
26051;DHT22;13825;53.496;10.020;2022-10-30T08:24:26;13.30;99.90
26051;DHT22;13825;53.496;10.020;2022-10-30T08:26:56;13.50;99.90
26051;DHT22;13825;53.496;10.020;2022-10-30T08:29:24;13.50;99.90
26051;DHT22;13825;53.496;10.020;2022-10-30T08:31:51;13.70;99.90
26051;DHT22;13825;53.496;10.020;2022-10-30T08:34:18;13.80;99.90
26051;DHT22;13825;53.496;10.020;2022-10-30T08:36:57;13.80;99.90
26051;DHT22;13825;53.496;10.020;2022-10-30T08:39:27;13.90;99.90
26051;DHT22;13825;53.496;10.020;2022-10-30T08:41:56;13.90;99.90
26051;DHT22;13825;53.496;10.020;2022-10-30T08:44:25;14.00;99.90
26051;DHT22;13825;53.496;10.020;2022-10-30T08:46:58;14.10;99.90
26051;DHT22;13825;53.496;10.020;2022-10-30T08:49:29;14.20;99.90
26051;DHT22;13825;53.496;10.020;2022-10-30T08:51:56;14.30;99.90
26051;DHT22;13825;53.496;10.020;2022-10-30T08:54:23;14.50;99.90
26051;DHT22;13825;53.496;10.020;2022-10-30T08:56:50;14.60;99.90
26051;DHT22;13825;53.496;10.020;2022-10-30T08:59:22;14.70;99.90
26051;DHT22;13825;53.496;10.020;2022-10-30T09:01:50;14.90;99.90
26051;DHT22;13825;53.496;10.020;2022-10-30T09:04:17;15.00;99.90
26051;DHT22;13825;53.496;10.020;2022-10-30T09:06:50;15.20;99.90
26051;DHT22;13825;53.496;10.020;2022-10-30T09:09:17;15.30;99.90
26051;DHT22;13825;53.496;10.020;2022-10-30T09:11:53;15.40;99.90
26051;DHT22;13825;53.496;10.020;2022-10-30T09:14:23;15.60;99.90
26051;DHT22;13825;53.496;10.020;2022-10-30T09:16:53;15.90;99.90
26051;DHT22;13825;53.496;10.020;2022-10-30T09:19:21;16.10;99.90
26051;DHT22;13825;53.496;10.020;2022-10-30T09:21:48;16.30;99.90
26051;DHT22;13825;53.496;10.020;2022-10-30T09:24:17;16.50;99.90
26051;DHT22;13825;53.496;10.020;2022-10-30T09:26:46;16.60;99.90
26051;DHT22;13825;53.496;10.020;2022-10-30T09:29:13;16.70;99.90
26051;DHT22;13825;53.496;10.020;2022-10-30T09:31:40;16.80;99.90
26051;DHT22;13825;53.496;10.020;2022-10-30T09:34:09;16.90;99.90
26051;DHT22;13825;53.496;10.020;2022-10-30T09:36:35;17.00;99.90
26051;DHT22;13825;53.496;10.020;2022-10-30T09:39:03;17.10;99.90
26051;DHT22;13825;53.496;10.020;2022-10-30T09:44:33;17.40;99.90
26051;DHT22;13825;53.496;10.020;2022-10-30T09:47:14;17.30;99.90
26051;DHT22;13825;53.496;10.020;2022-10-30T09:49:56;17.40;99.90
26051;DHT22;13825;53.496;10.020;2022-10-30T09:52:29;17.40;99.90
26051;DHT22;13825;53.496;10.020;2022-10-30T09:55:11;17.50;99.90
26051;DHT22;13825;53.496;10.020;2022-10-30T09:57:47;17.60;99.90
26051;DHT22;13825;53.496;10.020;2022-10-30T10:00:17;17.80;99.90
26051;DHT22;13825;53.496;10.020;2022-10-30T10:02:57;17.80;99.90
26051;DHT22;13825;53.496;10.020;2022-10-30T10:05:37;17.90;99.90
26051;DHT22;13825;53.496;10.020;2022-10-30T10:08:09;18.00;99.90
26051;DHT22;13825;53.496;10.020;2022-10-30T10:10:39;18.20;99.90
26051;DHT22;13825;53.496;10.020;2022-10-30T10:13:16;18.40;99.90
26051;DHT22;13825;53.496;10.020;2022-10-30T10:15:50;18.40;99.90
26051;DHT22;13825;53.496;10.020;2022-10-30T10:18:25;18.40;99.90
26051;DHT22;13825;53.496;10.020;2022-10-30T10:20:58;18.50;99.90
26051;DHT22;13825;53.496;10.020;2022-10-30T10:23:32;18.50;99.90
26051;DHT22;13825;53.496;10.020;2022-10-30T10:26:07;18.50;99.90
26051;DHT22;13825;53.496;10.020;2022-10-30T10:28:51;18.60;99.90
26051;DHT22;13825;53.496;10.020;2022-10-30T10:31:32;18.80;99.90
26051;DHT22;13825;53.496;10.020;2022-10-30T10:34:15;19.10;99.90
26051;DHT22;13825;53.496;10.020;2022-10-30T10:36:50;19.20;99.90
26051;DHT22;13825;53.496;10.020;2022-10-30T10:39:32;19.30;99.90
26051;DHT22;13825;53.496;10.020;2022-10-30T10:42:12;19.30;99.90
26051;DHT22;13825;53.496;10.020;2022-10-30T10:44:48;19.40;99.90
26051;DHT22;13825;53.496;10.020;2022-10-30T10:50:18;19.70;99.90
26051;DHT22;13825;53.496;10.020;2022-10-30T10:52:51;19.70;99.90
26051;DHT22;13825;53.496;10.020;2022-10-30T10:55:25;19.80;99.90
26051;DHT22;13825;53.496;10.020;2022-10-30T10:57:56;19.70;99.90
26051;DHT22;13825;53.496;10.020;2022-10-30T11:00:25;19.90;99.90
26051;DHT22;13825;53.496;10.020;2022-10-30T11:02:59;19.90;99.90
26051;DHT22;13825;53.496;10.020;2022-10-30T11:05:31;19.90;99.90
26051;DHT22;13825;53.496;10.020;2022-10-30T11:08:10;19.80;99.90
26051;DHT22;13825;53.496;10.020;2022-10-30T11:10:38;19.70;99.90
26051;DHT22;13825;53.496;10.020;2022-10-30T11:13:05;19.70;99.90
26051;DHT22;13825;53.496;10.020;2022-10-30T11:15:39;19.80;99.90
26051;DHT22;13825;53.496;10.020;2022-10-30T11:18:10;19.70;99.90
26051;DHT22;13825;53.496;10.020;2022-10-30T11:20:43;19.90;99.90
26051;DHT22;13825;53.496;10.020;2022-10-30T11:23:34;19.80;99.90
26051;DHT22;13825;53.496;10.020;2022-10-30T11:26:04;20.10;99.90
26051;DHT22;13825;53.496;10.020;2022-10-30T11:28:35;19.90;82.50
26051;DHT22;13825;53.496;10.020;2022-10-30T11:31:17;20.10;99.90
26051;DHT22;13825;53.496;10.020;2022-10-30T11:34:13;20.20;72.10
26051;DHT22;13825;53.496;10.020;2022-10-30T11:36:40;20.30;21.50
26051;DHT22;13825;53.496;10.020;2022-10-30T11:39:19;20.30;99.90
26051;DHT22;13825;53.496;10.020;2022-10-30T11:41:53;20.30;69.90
26051;DHT22;13825;53.496;10.020;2022-10-30T11:44:21;20.40;4.70
26051;DHT22;13825;53.496;10.020;2022-10-30T11:46:49;20.40;1.00
26051;DHT22;13825;53.496;10.020;2022-10-30T11:49:32;20.50;3.70
26051;DHT22;13825;53.496;10.020;2022-10-30T11:52:03;20.50;1.00
26051;DHT22;13825;53.496;10.020;2022-10-30T11:54:36;20.50;1.00
26051;DHT22;13825;53.496;10.020;2022-10-30T11:57:09;20.50;1.00
26051;DHT22;13825;53.496;10.020;2022-10-30T11:59:45;20.60;1.00
26051;DHT22;13825;53.496;10.020;2022-10-30T12:02:20;20.50;1.00
26051;DHT22;13825;53.496;10.020;2022-10-30T12:04:48;20.60;1.00
26051;DHT22;13825;53.496;10.020;2022-10-30T12:07:24;20.50;4.60
26051;DHT22;13825;53.496;10.020;2022-10-30T12:09:55;20.50;1.00
26051;DHT22;13825;53.496;10.020;2022-10-30T12:12:27;20.50;24.60
26051;DHT22;13825;53.496;10.020;2022-10-30T12:15:07;20.50;4.20
26051;DHT22;13825;53.496;10.020;2022-10-30T12:17:37;20.50;20.60
26051;DHT22;13825;53.496;10.020;2022-10-30T12:20:12;20.40;1.00
26051;DHT22;13825;53.496;10.020;2022-10-30T12:22:43;20.30;1.00
26051;DHT22;13825;53.496;10.020;2022-10-30T12:25:20;20.40;4.10
26051;DHT22;13825;53.496;10.020;2022-10-30T12:27:48;20.70;1.00
26051;DHT22;13825;53.496;10.020;2022-10-30T12:30:18;20.70;1.00
26051;DHT22;13825;53.496;10.020;2022-10-30T12:32:49;20.60;1.00
26051;DHT22;13825;53.496;10.020;2022-10-30T12:35:35;20.60;1.00
26051;DHT22;13825;53.496;10.020;2022-10-30T12:38:10;20.60;63.80
26051;DHT22;13825;53.496;10.020;2022-10-30T12:41:24;20.60;1.00
26051;DHT22;13825;53.496;10.020;2022-10-30T12:44:10;20.60;1.00
26051;DHT22;13825;53.496;10.020;2022-10-30T12:46:44;20.50;7.10
26051;DHT22;13825;53.496;10.020;2022-10-30T12:49:26;20.50;99.90
26051;DHT22;13825;53.496;10.020;2022-10-30T12:52:04;20.60;50.60
26051;DHT22;13825;53.496;10.020;2022-10-30T12:54:42;20.70;1.00
26051;DHT22;13825;53.496;10.020;2022-10-30T12:57:30;20.80;1.00
26051;DHT22;13825;53.496;10.020;2022-10-30T13:00:15;20.90;1.00
26051;DHT22;13825;53.496;10.020;2022-10-30T13:02:56;20.70;1.00
26051;DHT22;13825;53.496;10.020;2022-10-30T13:05:35;20.80;1.00
26051;DHT22;13825;53.496;10.020;2022-10-30T13:08:13;20.90;1.00
26051;DHT22;13825;53.496;10.020;2022-10-30T13:10:48;20.80;1.00
26051;DHT22;13825;53.496;10.020;2022-10-30T13:13:20;20.60;3.80
26051;DHT22;13825;53.496;10.020;2022-10-30T13:15:50;20.70;1.00
26051;DHT22;13825;53.496;10.020;2022-10-30T13:18:20;20.60;1.00
26051;DHT22;13825;53.496;10.020;2022-10-30T13:21:54;20.60;32.00
26051;DHT22;13825;53.496;10.020;2022-10-30T13:24:47;20.50;27.90
26051;DHT22;13825;53.496;10.020;2022-10-30T13:27:22;20.50;10.60
26051;DHT22;13825;53.496;10.020;2022-10-30T13:29:59;20.60;99.90
26051;DHT22;13825;53.496;10.020;2022-10-30T13:32:36;20.60;99.40
26051;DHT22;13825;53.496;10.020;2022-10-30T13:35:31;20.60;1.00
26051;DHT22;13825;53.496;10.020;2022-10-30T13:38:21;20.60;27.50
26051;DHT22;13825;53.496;10.020;2022-10-30T13:41:20;20.60;83.10
26051;DHT22;13825;53.496;10.020;2022-10-30T13:44:06;20.60;45.40
26051;DHT22;13825;53.496;10.020;2022-10-30T13:46:59;20.70;1.00
26051;DHT22;13825;53.496;10.020;2022-10-30T13:49:48;20.60;11.30
26051;DHT22;13825;53.496;10.020;2022-10-30T13:52:36;20.50;99.90
26051;DHT22;13825;53.496;10.020;2022-10-30T13:55:36;20.40;99.90
26051;DHT22;13825;53.496;10.020;2022-10-30T13:58:25;20.30;99.90
26051;DHT22;13825;53.496;10.020;2022-10-30T14:01:00;20.30;99.90
26051;DHT22;13825;53.496;10.020;2022-10-30T14:04:00;20.20;99.90
26051;DHT22;13825;53.496;10.020;2022-10-30T14:06:41;20.30;99.90
26051;DHT22;13825;53.496;10.020;2022-10-30T14:09:18;20.40;92.90
26051;DHT22;13825;53.496;10.020;2022-10-30T14:15:12;20.50;99.90
26051;DHT22;13825;53.496;10.020;2022-10-30T14:24:32;20.80;1.00
26051;DHT22;13825;53.496;10.020;2022-10-30T14:27:30;20.80;99.90
26051;DHT22;13825;53.496;10.020;2022-10-30T14:30:02;20.70;99.90
26051;DHT22;13825;53.496;10.020;2022-10-30T14:32:35;20.60;99.90
26051;DHT22;13825;53.496;10.020;2022-10-30T14:35:29;20.50;99.90
26051;DHT22;13825;53.496;10.020;2022-10-30T14:38:23;20.50;99.90
26051;DHT22;13825;53.496;10.020;2022-10-30T14:41:16;20.40;99.90
26051;DHT22;13825;53.496;10.020;2022-10-30T14:44:02;20.30;99.90
26051;DHT22;13825;53.496;10.020;2022-10-30T14:46:35;20.10;99.90
26051;DHT22;13825;53.496;10.020;2022-10-30T14:49:25;20.00;99.90
26051;DHT22;13825;53.496;10.020;2022-10-30T14:52:11;19.90;99.90
26051;DHT22;13825;53.496;10.020;2022-10-30T14:55:04;19.70;99.90
26051;DHT22;13825;53.496;10.020;2022-10-30T14:57:51;19.50;99.90
26051;DHT22;13825;53.496;10.020;2022-10-30T15:00:43;19.20;99.90
26051;DHT22;13825;53.496;10.020;2022-10-30T15:03:37;18.90;99.90
26051;DHT22;13825;53.496;10.020;2022-10-30T15:06:50;18.70;99.90
26051;DHT22;13825;53.496;10.020;2022-10-30T15:10:00;18.40;99.90
26051;DHT22;13825;53.496;10.020;2022-10-30T15:12:50;18.30;99.90
26051;DHT22;13825;53.496;10.020;2022-10-30T15:15:20;18.10;99.90
26051;DHT22;13825;53.496;10.020;2022-10-30T15:17:51;17.90;99.90
26051;DHT22;13825;53.496;10.020;2022-10-30T15:20:23;17.80;99.90
26051;DHT22;13825;53.496;10.020;2022-10-30T15:22:53;17.60;99.90
26051;DHT22;13825;53.496;10.020;2022-10-30T15:25:32;17.40;99.90
26051;DHT22;13825;53.496;10.020;2022-10-30T15:28:17;17.30;99.90
26051;DHT22;13825;53.496;10.020;2022-10-30T15:31:01;17.10;99.90
26051;DHT22;13825;53.496;10.020;2022-10-30T15:33:28;16.90;99.90
26051;DHT22;13825;53.496;10.020;2022-10-30T15:36:03;16.80;99.90
26051;DHT22;13825;53.496;10.020;2022-10-30T15:38:32;16.70;99.90
26051;DHT22;13825;53.496;10.020;2022-10-30T15:41:10;16.50;99.90
26051;DHT22;13825;53.496;10.020;2022-10-30T15:43:40;16.30;99.90
26051;DHT22;13825;53.496;10.020;2022-10-30T15:46:11;16.20;99.90
26051;DHT22;13825;53.496;10.020;2022-10-30T15:49:27;16.10;99.90
26051;DHT22;13825;53.496;10.020;2022-10-30T15:52:20;15.90;99.90
26051;DHT22;13825;53.496;10.020;2022-10-30T15:54:52;15.80;99.90
26051;DHT22;13825;53.496;10.020;2022-10-30T15:57:26;15.70;99.90
26051;DHT22;13825;53.496;10.020;2022-10-30T16:00:00;15.50;99.90
26051;DHT22;13825;53.496;10.020;2022-10-30T16:02:33;15.40;99.90
26051;DHT22;13825;53.496;10.020;2022-10-30T16:05:16;15.30;99.90
26051;DHT22;13825;53.496;10.020;2022-10-30T16:07:45;15.20;99.90
26051;DHT22;13825;53.496;10.020;2022-10-30T16:10:15;15.20;99.90
26051;DHT22;13825;53.496;10.020;2022-10-30T16:12:43;15.10;99.90
26051;DHT22;13825;53.496;10.020;2022-10-30T16:15:23;15.00;99.90
26051;DHT22;13825;53.496;10.020;2022-10-30T16:18:03;14.90;99.90